createdAt,value
2018-05-17T00:01:57.600Z,13.13
2018-05-17T00:04:25.113Z,12.67
2018-05-17T00:06:52.604Z,12.57
2018-05-17T00:09:20.118Z,13.80
2018-05-17T00:11:47.619Z,13.07
2018-05-17T00:14:15.116Z,13.80
2018-05-17T00:16:43.401Z,16.30
2018-05-17T00:19:10.888Z,15.70
2018-05-17T00:21:39.172Z,15.73
2018-05-17T00:24:07.432Z,15.10
2018-05-17T00:26:34.922Z,15.67
2018-05-17T00:29:02.452Z,15.17
2018-05-17T00:31:29.942Z,16.30
2018-05-17T00:33:57.458Z,14.90
2018-05-17T00:36:24.947Z,15.97
2018-05-17T00:38:52.433Z,15.77
2018-05-17T00:41:19.950Z,15.23
2018-05-17T00:43:48.198Z,18.13
2018-05-17T00:46:15.721Z,18.17
2018-05-17T00:48:43.973Z,18.47
2018-05-17T00:51:11.466Z,17.50
2018-05-17T00:53:39.758Z,18.30
2018-05-17T00:56:08.019Z,17.53
2018-05-17T00:58:35.549Z,16.37
2018-05-17T01:01:03.033Z,16.53
2018-05-17T01:03:30.565Z,16.30
2018-05-17T01:05:58.825Z,16.33
2018-05-17T01:08:26.314Z,14.73
2018-05-17T01:10:54.614Z,16.73
2018-05-17T01:13:22.858Z,16.60
2018-05-17T01:15:50.369Z,16.70
2018-05-17T01:18:18.626Z,16.80
2018-05-17T01:20:46.109Z,15.13
2018-05-17T01:23:13.634Z,15.70
2018-05-17T01:25:41.128Z,15.70
2018-05-17T01:28:08.655Z,16.20
2018-05-17T01:30:36.144Z,17.23
2018-05-17T01:33:03.643Z,16.30
2018-05-17T01:35:31.172Z,17.50
2018-05-17T01:38:10.281Z,18.90
2018-05-17T01:40:38.569Z,19.27
2018-05-17T01:43:06.826Z,18.17
2018-05-17T01:45:34.350Z,20.70
2018-05-17T01:48:01.839Z,19.57
2018-05-17T01:50:29.326Z,20.53
2018-05-17T01:52:56.837Z,20.30
2018-05-17T01:55:24.317Z,20.90
2018-05-17T01:57:52.608Z,21.97
2018-05-17T02:00:20.873Z,21.47
2018-05-17T02:02:48.374Z,23.60
2018-05-17T02:05:15.902Z,22.93
2018-05-17T02:07:43.391Z,23.73
2018-05-17T02:10:10.875Z,25.30
2018-05-17T02:12:39.167Z,23.80
2018-05-17T02:15:07.427Z,23.90
2018-05-17T02:17:34.927Z,25.63
2018-05-17T02:20:03.215Z,25.33
2018-05-17T02:22:31.474Z,24.53
2018-05-17T02:24:59.037Z,25.63
2018-05-17T02:27:26.560Z,25.77
2018-05-17T02:29:54.063Z,27.33
2018-05-17T02:32:21.568Z,25.30
2018-05-17T02:34:49.113Z,26.20
2018-05-17T02:37:16.615Z,26.00
2018-05-17T02:39:44.915Z,28.00
2018-05-17T02:42:13.178Z,26.30
2018-05-17T02:44:40.759Z,27.70
2018-05-17T02:47:09.035Z,27.80
2018-05-17T02:49:36.522Z,26.53
2018-05-17T02:52:04.819Z,26.30
2018-05-17T02:54:32.339Z,27.70
2018-05-17T02:56:59.827Z,27.20
2018-05-17T02:59:28.130Z,26.03
2018-05-17T03:01:55.637Z,27.27
2018-05-17T03:04:23.145Z,27.57
2018-05-17T03:06:50.674Z,25.87
2018-05-17T03:09:18.183Z,26.30
2018-05-17T03:11:45.687Z,25.80
2018-05-17T03:14:13.223Z,25.90
2018-05-17T03:16:40.717Z,25.00
2018-05-17T03:19:08.204Z,23.30
2018-05-17T03:21:35.731Z,22.90
2018-05-17T03:24:03.239Z,22.10
2018-05-17T03:26:30.748Z,23.67
2018-05-17T03:28:58.274Z,22.03
2018-05-17T03:31:25.768Z,21.83
2018-05-17T03:33:53.259Z,22.03
2018-05-17T03:36:20.777Z,21.70
2018-05-17T03:38:48.280Z,22.57
2018-05-17T03:41:16.550Z,20.93
2018-05-17T03:43:44.091Z,21.40
2018-05-17T03:46:11.595Z,22.00
2018-05-17T03:48:39.087Z,22.17
2018-05-17T03:51:07.378Z,21.20
2018-05-17T03:53:34.873Z,22.10
2018-05-17T03:56:02.370Z,20.63
2018-05-17T03:58:29.898Z,21.80
2018-05-17T04:01:09.152Z,21.27
2018-05-17T04:06:42.307Z,21.87
2018-05-17T04:09:09.845Z,21.90
2018-05-17T04:11:37.343Z,21.10
2018-05-17T04:14:04.844Z,20.90
2018-05-17T04:16:32.373Z,20.73
2018-05-17T04:18:59.871Z,19.10
2018-05-17T04:21:27.379Z,20.77
2018-05-17T04:23:54.899Z,18.20
2018-05-17T04:26:22.387Z,19.17
2018-05-17T04:28:49.883Z,18.67
2018-05-17T04:31:17.425Z,19.53
2018-05-17T04:33:44.918Z,19.47
2018-05-17T04:36:12.416Z,19.40
2018-05-17T04:38:39.939Z,19.47
2018-05-17T04:41:07.441Z,20.63
2018-05-17T04:43:34.930Z,18.30
2018-05-17T04:46:02.455Z,19.40
2018-05-17T04:48:29.943Z,19.33
2018-05-17T04:50:57.440Z,16.70
2018-05-17T04:53:25.728Z,17.20
2018-05-17T04:55:53.227Z,15.33
2018-05-17T04:58:20.729Z,15.27
2018-05-17T05:00:48.259Z,14.33
2018-05-17T05:03:15.746Z,17.07
2018-05-17T05:05:43.275Z,16.00
2018-05-17T05:08:10.768Z,14.03
2018-05-17T05:10:38.258Z,14.40
2018-05-17T05:13:05.780Z,13.77
2018-05-17T05:15:34.030Z,13.17
2018-05-17T05:18:01.519Z,14.60
2018-05-17T05:20:29.054Z,12.37
2018-05-17T05:22:56.542Z,13.80
2018-05-17T05:25:24.122Z,14.47
2018-05-17T05:27:51.593Z,13.70
2018-05-17T05:30:19.103Z,12.37
2018-05-17T05:32:47.390Z,13.20
2018-05-17T05:35:14.917Z,11.57
2018-05-17T05:37:42.404Z,12.30
2018-05-17T05:40:09.944Z,11.33
2018-05-17T05:42:37.443Z,11.80
2018-05-17T05:45:04.936Z,11.67
2018-05-17T05:47:33.237Z,12.40
2018-05-17T05:50:00.722Z,19.40
2018-05-17T05:52:28.234Z,14.93
2018-05-17T05:54:55.755Z,10.97
2018-05-17T05:57:23.255Z,11.97
2018-05-17T05:59:50.760Z,11.30
2018-05-17T06:02:18.305Z,10.67
2018-05-17T06:04:45.827Z,11.60
2018-05-17T06:07:14.083Z,10.97
2018-05-17T06:09:41.653Z,10.90
2018-05-17T06:12:09.162Z,10.70
2018-05-17T06:14:36.663Z,10.03
2018-05-17T06:17:04.183Z,11.10
2018-05-17T06:19:32.442Z,10.17
2018-05-17T06:22:00.014Z,10.20
2018-05-17T06:24:27.470Z,9.87
2018-05-17T06:26:54.973Z,10.30
2018-05-17T06:29:22.468Z,10.07
2018-05-17T06:31:50.759Z,9.60
2018-05-17T06:34:19.015Z,9.37
2018-05-17T06:36:46.506Z,10.03
2018-05-17T06:39:14.790Z,9.83
2018-05-17T06:41:43.042Z,10.10
2018-05-17T06:44:10.528Z,8.57
2018-05-17T06:46:38.053Z,7.90
2018-05-17T06:49:05.546Z,8.10
2018-05-17T06:51:33.035Z,9.23
2018-05-17T06:54:00.556Z,8.90
2018-05-17T06:56:28.046Z,15.13
2018-05-17T06:58:55.575Z,8.20
2018-05-17T07:01:23.826Z,8.73
2018-05-17T07:03:51.315Z,8.83
2018-05-17T07:06:18.859Z,9.13
2018-05-17T07:08:46.360Z,8.10
2018-05-17T07:11:13.851Z,8.53
2018-05-17T07:13:42.128Z,7.60
2018-05-17T07:16:10.382Z,9.90
2018-05-17T07:18:38.359Z,8.77
2018-05-17T07:21:06.191Z,8.60
2018-05-17T07:23:34.487Z,9.10
2018-05-17T07:26:01.975Z,9.17
2018-05-17T07:28:29.520Z,23.70
2018-05-17T07:30:57.782Z,11.73
2018-05-17T07:33:25.271Z,8.90
2018-05-17T07:35:53.559Z,8.30
2018-05-17T07:38:21.815Z,8.17
2018-05-17T07:40:49.303Z,8.37
2018-05-17T07:43:16.831Z,7.90
2018-05-17T07:45:44.319Z,8.77
2018-05-17T07:48:11.814Z,8.67
2018-05-17T07:50:39.338Z,7.50
2018-05-17T07:53:06.834Z,7.70
2018-05-17T07:55:34.360Z,8.90
2018-05-17T07:58:02.636Z,8.73
2018-05-17T08:00:30.923Z,8.70
2018-05-17T08:02:59.164Z,8.40
2018-05-17T08:05:26.694Z,8.70
2018-05-17T08:07:54.190Z,7.90
2018-05-17T08:10:21.685Z,13.07
2018-05-17T08:12:49.218Z,12.67
2018-05-17T08:15:16.706Z,7.10
2018-05-17T08:17:44.198Z,6.37
2018-05-17T08:20:11.716Z,5.60
2018-05-17T08:22:39.202Z,6.47
2018-05-17T08:25:06.694Z,6.40
2018-05-17T08:27:34.210Z,5.60
2018-05-17T08:30:02.473Z,6.80
2018-05-17T08:32:29.960Z,6.20
2018-05-17T08:34:58.243Z,6.20
2018-05-17T08:37:25.734Z,6.97
2018-05-17T08:39:54.021Z,6.87
2018-05-17T08:42:22.283Z,7.00
2018-05-17T08:44:49.967Z,7.47
2018-05-17T08:47:17.484Z,9.40
2018-05-17T08:49:44.979Z,7.57
2018-05-17T08:52:12.511Z,6.60
2018-05-17T08:54:40.002Z,10.67
2018-05-17T08:57:07.504Z,13.03
2018-05-17T08:59:35.032Z,7.00
2018-05-17T09:02:02.514Z,6.47
2018-05-17T09:04:29.994Z,6.73
2018-05-17T09:06:57.515Z,5.97
2018-05-17T09:09:25.779Z,6.63
2018-05-17T09:11:53.276Z,6.90
2018-05-17T09:14:21.568Z,6.37
2018-05-17T09:16:49.819Z,5.50
2018-05-17T09:19:17.342Z,7.63
2018-05-17T09:21:44.834Z,6.87
2018-05-17T09:24:12.323Z,6.70
2018-05-17T09:26:39.838Z,6.40
2018-05-17T09:29:07.393Z,5.97
2018-05-17T09:31:34.839Z,6.40
2018-05-17T09:34:02.374Z,5.87
2018-05-17T09:36:29.880Z,11.17
2018-05-17T09:38:57.371Z,8.37
2018-05-17T09:41:24.932Z,7.80
2018-05-17T09:43:52.391Z,5.83
2018-05-17T09:46:19.888Z,7.03
2018-05-17T09:48:48.182Z,6.60
2018-05-17T09:51:16.449Z,6.97
2018-05-17T09:53:43.940Z,6.93
2018-05-17T09:56:12.232Z,6.37
2018-05-17T09:58:40.492Z,5.20
2018-05-17T10:01:07.987Z,5.80
2018-05-17T10:03:36.275Z,5.90
2018-05-17T10:06:04.532Z,4.67
2018-05-17T10:08:32.053Z,5.70
2018-05-17T10:10:59.534Z,5.23
2018-05-17T10:13:27.019Z,5.00
2018-05-17T10:15:54.548Z,5.00
2018-05-17T10:18:22.795Z,4.57
2018-05-17T10:20:50.287Z,5.53
2018-05-17T10:23:17.822Z,5.57
2018-05-17T10:25:45.306Z,5.10
2018-05-17T10:28:12.807Z,5.17
2018-05-17T10:30:41.091Z,5.53
2018-05-17T10:33:09.343Z,5.20
2018-05-17T10:35:36.831Z,5.07
2018-05-17T10:38:04.346Z,5.33
2018-05-17T10:40:38.710Z,5.53
2018-05-17T10:43:06.239Z,5.73
2018-05-17T10:45:34.503Z,12.50
2018-05-17T10:48:01.989Z,5.77
2018-05-17T10:50:30.284Z,5.27
2018-05-17T10:52:58.540Z,5.30
2018-05-17T10:55:26.034Z,4.57
2018-05-17T10:57:54.327Z,5.90
2018-05-17T11:00:22.580Z,5.53
2018-05-17T11:02:50.085Z,5.27
2018-05-17T11:05:17.620Z,5.27
2018-05-17T11:07:45.107Z,4.47
2018-05-17T11:10:12.590Z,5.07
2018-05-17T11:12:40.120Z,5.97
2018-05-17T11:15:07.653Z,5.37
2018-05-17T11:17:35.879Z,7.00
2018-05-17T11:20:03.408Z,5.13
2018-05-17T11:22:30.895Z,5.00
2018-05-17T11:24:58.385Z,4.90
2018-05-17T11:27:25.920Z,5.43
2018-05-17T11:29:53.408Z,5.23
2018-05-17T11:32:20.891Z,4.57
2018-05-17T11:34:48.419Z,5.40
2018-05-17T11:37:16.675Z,4.30
2018-05-17T11:39:44.163Z,4.70
2018-05-17T11:42:11.687Z,5.33
2018-05-17T11:44:39.172Z,5.37
2018-05-17T11:47:06.667Z,4.77
2018-05-17T11:49:34.199Z,6.50
2018-05-17T11:52:01.688Z,5.10
2018-05-17T11:54:29.175Z,5.53
2018-05-17T11:56:56.694Z,5.97
2018-05-17T11:59:24.946Z,6.03
2018-05-17T12:01:52.430Z,7.60
2018-05-17T12:04:20.794Z,5.03
2018-05-17T12:06:48.381Z,5.60
2018-05-17T12:09:15.872Z,5.23
2018-05-17T12:11:43.414Z,6.00
2018-05-17T12:14:10.906Z,16.43
2018-05-17T12:16:39.158Z,23.23
2018-05-17T12:19:06.679Z,9.50
2018-05-17T12:21:34.180Z,5.50
2018-05-17T12:24:01.667Z,6.70
2018-05-17T12:26:29.191Z,5.83
2018-05-17T12:28:56.692Z,6.10
2018-05-17T12:31:24.186Z,5.63
2018-05-17T12:33:51.719Z,7.30
2018-05-17T12:36:21.497Z,6.50
2018-05-17T12:38:49.765Z,6.30
2018-05-17T12:41:17.299Z,7.03
2018-05-17T12:43:44.788Z,6.60
2018-05-17T12:46:12.280Z,6.70
2018-05-17T12:48:39.821Z,5.90
2018-05-17T12:51:07.313Z,5.70
2018-05-17T12:53:34.813Z,7.40
2018-05-17T12:56:02.330Z,6.87
2018-05-17T12:58:29.863Z,7.30
2018-05-17T13:00:57.335Z,7.33
2018-05-17T13:03:25.657Z,7.33
2018-05-17T13:05:53.143Z,6.80
2018-05-17T13:08:20.632Z,6.43
2018-05-17T13:10:48.155Z,7.03
2018-05-17T13:13:15.642Z,7.63
2018-05-17T13:15:43.167Z,6.73
2018-05-17T13:18:11.428Z,6.43
2018-05-17T13:20:38.926Z,7.20
2018-05-17T13:23:07.215Z,6.43
2018-05-17T13:25:34.718Z,8.77
2018-05-17T13:28:02.248Z,6.37
2018-05-17T13:30:30.519Z,6.07
2018-05-17T13:32:58.020Z,6.00
2018-05-17T13:35:26.299Z,6.00
2018-05-17T13:37:54.559Z,6.10
2018-05-17T13:40:22.060Z,6.57
2018-05-17T13:42:50.351Z,7.60
2018-05-17T13:45:17.849Z,7.20
2018-05-17T13:47:45.386Z,5.53
2018-05-17T13:50:12.880Z,8.97
2018-05-17T13:52:40.371Z,8.50
2018-05-17T13:55:07.882Z,7.27
2018-05-17T13:57:35.406Z,7.20
2018-05-17T14:00:02.894Z,7.07
2018-05-17T14:02:30.417Z,7.23
2018-05-17T14:04:57.949Z,6.57
2018-05-17T14:07:25.452Z,7.07
2018-05-17T14:09:53.727Z,7.90
2018-05-17T14:12:21.259Z,6.53
2018-05-17T14:14:48.755Z,6.90
2018-05-17T14:17:16.248Z,7.00
2018-05-17T14:19:43.767Z,6.60
2018-05-17T14:22:11.275Z,7.30
2018-05-17T14:24:38.770Z,7.43
2018-05-17T14:27:07.058Z,6.30
2018-05-17T14:29:35.329Z,7.30
2018-05-17T14:32:02.887Z,7.03
2018-05-17T14:34:30.414Z,6.70
2018-05-17T14:36:57.912Z,7.57
2018-05-17T14:39:25.402Z,8.27
2018-05-17T14:41:52.953Z,8.63
2018-05-17T14:44:20.454Z,8.90
2018-05-17T14:46:47.957Z,8.60
2018-05-17T14:49:15.491Z,8.17
2018-05-17T14:51:42.995Z,8.30
2018-05-17T14:54:11.254Z,7.70
2018-05-17T14:56:38.780Z,8.40
2018-05-17T14:59:06.268Z,9.20
2018-05-17T15:01:33.857Z,9.77
2018-05-17T15:04:02.092Z,15.57
2018-05-17T15:06:29.584Z,9.77
2018-05-17T15:08:57.142Z,8.90
2018-05-17T15:11:24.800Z,7.80
2018-05-17T15:13:52.196Z,8.33
2018-05-17T15:16:19.732Z,8.10
2018-05-17T15:18:47.218Z,9.67
2018-05-17T15:21:14.747Z,8.80
2018-05-17T15:23:42.243Z,7.30
2018-05-17T15:26:09.759Z,9.30
2018-05-17T15:28:37.299Z,7.87
2018-05-17T15:31:04.883Z,8.00
2018-05-17T15:33:32.376Z,7.70
2018-05-17T15:35:59.919Z,6.83
2018-05-17T15:38:27.412Z,7.43
2018-05-17T15:40:54.916Z,8.60
2018-05-17T15:43:22.438Z,8.30
2018-05-17T15:45:49.933Z,8.97
2018-05-17T15:48:17.461Z,7.93
2018-05-17T15:50:44.998Z,8.97
2018-05-17T15:53:12.540Z,9.93
2018-05-17T15:55:40.039Z,8.80
2018-05-17T15:58:07.565Z,8.80
2018-05-17T16:00:35.085Z,9.70
2018-05-17T16:03:03.351Z,8.77
2018-05-17T16:05:31.076Z,9.47
2018-05-17T16:07:58.573Z,10.80
2018-05-17T16:10:26.100Z,8.07
2018-05-17T16:12:54.364Z,8.10
2018-05-17T16:15:21.910Z,9.33
2018-05-17T16:17:50.160Z,9.10
2018-05-17T16:20:17.655Z,8.67
2018-05-17T16:22:45.192Z,8.37
2018-05-17T16:25:13.703Z,10.53
2018-05-17T16:27:41.253Z,8.93
2018-05-17T16:30:08.812Z,8.90
2018-05-17T16:32:36.312Z,8.80
2018-05-17T16:35:03.819Z,7.77
2018-05-17T16:37:31.353Z,8.27
2018-05-17T16:39:58.842Z,9.03
2018-05-17T16:42:26.344Z,7.83
2018-05-17T16:44:53.874Z,9.20
2018-05-17T16:47:21.362Z,7.60
2018-05-17T16:49:48.899Z,8.43
2018-05-17T16:52:16.755Z,7.70
2018-05-17T16:54:44.255Z,7.80
2018-05-17T16:57:11.778Z,7.83
2018-05-17T16:59:39.271Z,9.10
2018-05-17T17:02:06.759Z,7.63
2018-05-17T17:04:35.059Z,7.93
2018-05-17T17:07:02.551Z,10.20
2018-05-17T17:09:30.040Z,9.03
2018-05-17T17:11:57.563Z,9.67
2018-05-17T17:14:25.823Z,8.83
2018-05-17T17:16:53.361Z,8.90
2018-05-17T17:19:20.859Z,7.30
2018-05-17T17:21:48.349Z,7.30
2018-05-17T17:24:16.652Z,7.60
2018-05-17T17:26:44.152Z,8.43
2018-05-17T17:29:11.643Z,7.83
2018-05-17T17:31:39.196Z,8.10
2018-05-17T17:34:06.751Z,6.93
2018-05-17T17:36:34.299Z,6.23
2018-05-17T17:39:01.791Z,7.67
2018-05-17T17:41:29.277Z,7.07
2018-05-17T17:43:56.778Z,6.57
2018-05-17T17:46:24.311Z,6.37
2018-05-17T17:48:51.815Z,6.70
2018-05-17T17:51:19.458Z,7.43
2018-05-17T17:53:46.999Z,14.60
2018-05-17T17:56:14.723Z,7.10
2018-05-17T17:58:42.253Z,6.10
2018-05-17T18:01:10.528Z,6.70
2018-05-17T18:03:38.781Z,6.77
2018-05-17T18:06:07.281Z,5.93
2018-05-17T18:08:34.816Z,6.17
2018-05-17T18:11:02.306Z,5.97
2018-05-17T18:13:29.818Z,9.30
2018-05-17T18:15:58.129Z,6.87
2018-05-17T18:18:25.615Z,6.50
2018-05-17T18:20:53.113Z,5.93
2018-05-17T18:23:20.656Z,6.10
2018-05-17T18:25:48.147Z,5.13
2018-05-17T18:28:15.693Z,4.60
2018-05-17T18:30:43.187Z,5.50
2018-05-17T18:33:10.679Z,6.40
2018-05-17T18:35:38.248Z,5.30
2018-05-17T18:38:05.727Z,6.83
2018-05-17T18:40:34.003Z,4.97
2018-05-17T18:43:01.541Z,5.20
2018-05-17T18:45:29.806Z,4.93
2018-05-17T18:47:57.317Z,5.10
2018-05-17T18:50:24.857Z,5.50
2018-05-17T18:52:52.366Z,5.30
2018-05-17T18:55:22.916Z,4.67
2018-05-17T18:57:47.465Z,5.90
2018-05-17T19:00:14.972Z,8.33
2018-05-17T19:02:42.574Z,7.53
2018-05-17T19:05:10.040Z,6.60
2018-05-17T19:07:37.534Z,4.70
2018-05-17T19:10:05.022Z,4.47
2018-05-17T19:12:32.555Z,4.93
2018-05-17T19:15:00.060Z,5.03
2018-05-17T19:17:27.555Z,5.77
2018-05-17T19:19:55.103Z,4.73
2018-05-17T19:22:22.590Z,5.43
2018-05-17T19:24:50.444Z,6.10
2018-05-17T19:27:18.700Z,5.63
2018-05-17T19:29:46.195Z,6.07
2018-05-17T19:32:14.498Z,5.50
2018-05-17T19:34:41.998Z,4.90
2018-05-17T19:37:09.635Z,4.80
2018-05-17T19:39:37.046Z,4.60
2018-05-17T19:42:04.636Z,5.17
2018-05-17T19:44:32.184Z,7.00
2018-05-17T19:46:59.682Z,6.67
2018-05-17T19:49:27.182Z,4.80
2018-05-17T19:51:56.528Z,5.23
2018-05-17T19:54:24.049Z,6.60
2018-05-17T19:56:52.327Z,22.20
2018-05-17T19:59:19.882Z,10.73
2018-05-17T20:01:47.388Z,7.20
2018-05-17T20:04:14.897Z,5.30
2018-05-17T20:06:42.458Z,5.07
2018-05-17T20:09:10.728Z,5.50
2018-05-17T20:11:38.990Z,5.50
2018-05-17T20:14:06.516Z,4.50
2018-05-17T20:16:34.011Z,5.30
2018-05-17T20:19:01.528Z,4.63
2018-05-17T20:21:29.059Z,5.20
2018-05-17T20:23:56.563Z,5.53
2018-05-17T20:26:24.823Z,4.73
2018-05-17T20:28:53.013Z,14.17
2018-05-17T20:31:20.520Z,48.17
2018-05-17T20:33:48.037Z,10.63
2018-05-17T20:36:15.558Z,7.03
2018-05-17T20:38:44.816Z,4.70
2018-05-17T20:41:12.349Z,5.10
2018-05-17T20:43:39.859Z,5.17
2018-05-17T20:46:07.374Z,5.57
2018-05-17T20:48:35.639Z,5.10
2018-05-17T20:51:03.148Z,4.90
2018-05-17T20:53:30.675Z,4.47
2018-05-17T20:55:58.172Z,5.80
2018-05-17T20:58:25.671Z,5.17
2018-05-17T21:00:53.202Z,4.83
2018-05-17T21:03:20.701Z,5.57
2018-05-17T21:05:48.199Z,6.00
2018-05-17T21:08:15.731Z,5.80
2018-05-17T21:10:43.997Z,5.00
2018-05-17T21:13:11.495Z,5.20
2018-05-17T21:15:39.028Z,5.23
2018-05-17T21:18:06.514Z,5.60
2018-05-17T21:20:34.003Z,5.30
2018-05-17T21:23:01.531Z,5.37
2018-05-17T21:25:29.043Z,4.57
2018-05-17T21:27:57.313Z,5.40
2018-05-17T21:30:24.844Z,5.40
2018-05-17T21:32:52.331Z,5.27
2018-05-17T21:35:19.827Z,5.17
2018-05-17T21:37:48.132Z,5.90
2018-05-17T21:40:16.387Z,5.73
2018-05-17T21:42:43.902Z,4.57
2018-05-17T21:45:11.421Z,6.00
2018-05-17T21:47:38.913Z,6.77
2018-05-17T21:50:07.173Z,5.07
2018-05-17T21:52:34.692Z,5.20
2018-05-17T21:55:02.183Z,6.10
2018-05-17T21:57:29.675Z,4.70
2018-05-17T21:59:57.219Z,5.10
2018-05-17T22:02:24.719Z,6.37
2018-05-17T22:04:52.211Z,6.20
2018-05-17T22:07:19.736Z,6.80
2018-05-17T22:09:47.231Z,6.10
2018-05-17T22:12:14.723Z,6.47
2018-05-17T22:14:42.245Z,6.53
2018-05-17T22:17:09.738Z,6.53
2018-05-17T22:19:37.242Z,6.00
2018-05-17T22:22:04.767Z,5.87
2018-05-17T22:24:32.266Z,5.20
2018-05-17T22:26:59.760Z,5.90
2018-05-17T22:29:28.072Z,7.43
2018-05-17T22:31:55.563Z,7.33
2018-05-17T22:34:23.820Z,6.03
2018-05-17T22:36:52.143Z,5.37
2018-05-17T22:39:19.628Z,6.37
2018-05-17T22:41:47.122Z,5.20
2018-05-17T22:44:14.657Z,5.30
2018-05-17T22:46:42.921Z,4.57
2018-05-17T22:49:10.419Z,5.77
2018-05-17T22:51:37.951Z,5.10
2018-05-17T22:54:06.208Z,5.20
2018-05-17T22:59:37.068Z,4.77
2018-05-17T23:02:04.595Z,7.30
2018-05-17T23:04:32.098Z,7.37
2018-05-17T23:06:59.582Z,7.03
2018-05-17T23:09:27.104Z,5.60
2018-05-17T23:11:55.363Z,6.20
2018-05-17T23:14:22.855Z,5.07
2018-05-17T23:16:51.152Z,5.30
2018-05-17T23:19:19.414Z,5.37
2018-05-17T23:21:46.934Z,4.90
2018-05-17T23:24:14.431Z,5.20
2018-05-17T23:26:41.931Z,4.77
2018-05-17T23:29:09.460Z,5.30
2018-05-17T23:31:36.950Z,5.40
2018-05-17T23:34:04.452Z,5.37
2018-05-17T23:36:32.747Z,5.90
2018-05-17T23:39:01.003Z,4.43
2018-05-17T23:41:34.382Z,5.33
2018-05-17T23:44:01.875Z,5.60
2018-05-17T23:46:29.374Z,5.53
2018-05-17T23:48:56.907Z,6.23
2018-05-17T23:51:24.413Z,5.67
2018-05-17T23:53:51.912Z,6.10
2018-05-17T23:56:19.437Z,6.03
2018-05-17T23:58:46.928Z,5.57
